createdAt,value
2018-06-12T00:00:06.160Z,19.31
2018-06-12T00:02:37.115Z,19.39
2018-06-12T00:05:07.836Z,19.41
2018-06-12T00:07:38.791Z,19.28
2018-06-12T00:10:09.527Z,18.84
2018-06-12T00:12:39.754Z,18.98
2018-06-12T00:15:10.547Z,19.04
2018-06-12T00:17:41.314Z,19.18
2018-06-12T00:20:12.239Z,19.20
2018-06-12T00:22:43.590Z,19.04
2018-06-12T00:25:14.232Z,19.06
2018-06-12T00:27:45.022Z,18.90
2018-06-12T00:30:15.631Z,18.92
2018-06-12T00:32:46.600Z,18.86
2018-06-12T00:35:17.151Z,18.82
2018-06-12T00:37:47.951Z,18.89
2018-06-12T00:40:18.627Z,18.85
2018-06-12T00:42:49.280Z,18.74
2018-06-12T00:45:19.793Z,18.69
2018-06-12T00:47:50.861Z,18.50
2018-06-12T00:50:22.779Z,18.34
2018-06-12T00:52:53.527Z,18.15
2018-06-12T00:55:24.149Z,18.19
2018-06-12T00:57:54.528Z,18.05
2018-06-12T01:00:25.838Z,18.14
2018-06-12T01:02:58.080Z,18.31
2018-06-12T01:05:29.646Z,18.35
2018-06-12T01:08:00.578Z,18.21
2018-06-12T01:10:31.486Z,18.20
2018-06-12T01:13:02.255Z,18.34
2018-06-12T01:15:33.300Z,18.32
2018-06-12T01:18:04.339Z,18.27
2018-06-12T01:20:35.595Z,18.35
2018-06-12T01:23:06.539Z,18.37
2018-06-12T01:25:37.376Z,18.18
2018-06-12T01:28:08.857Z,18.14
2018-06-12T01:30:39.953Z,18.20
2018-06-12T01:33:10.561Z,18.35
2018-06-12T01:35:41.323Z,18.31
2018-06-12T01:38:12.420Z,18.20
2018-06-12T01:40:43.977Z,18.24
2018-06-12T01:43:14.768Z,18.20
2018-06-12T01:45:45.016Z,18.00
2018-06-12T01:48:15.897Z,17.91
2018-06-12T01:50:48.103Z,18.07
2018-06-12T01:53:19.537Z,18.20
2018-06-12T01:55:50.384Z,18.21
2018-06-12T01:58:21.653Z,17.95
2018-06-12T02:00:52.496Z,17.97
2018-06-12T02:03:23.239Z,18.06
2018-06-12T02:05:54.539Z,17.95
2018-06-12T02:08:25.718Z,17.93
2018-06-12T02:10:56.628Z,18.00
2018-06-12T02:13:27.211Z,18.00
2018-06-12T02:15:58.030Z,17.83
2018-06-12T02:18:28.271Z,17.71
2018-06-12T02:20:59.976Z,17.73
2018-06-12T02:23:30.647Z,17.76
2018-06-12T02:26:01.329Z,17.70
2018-06-12T02:28:31.939Z,17.50
2018-06-12T02:31:03.025Z,17.40
2018-06-12T02:33:33.805Z,17.61
2018-06-12T02:36:03.945Z,17.50
2018-06-12T02:38:35.785Z,17.47
2018-06-12T02:41:06.585Z,17.42
2018-06-12T02:43:37.528Z,17.51
2018-06-12T02:46:08.310Z,17.58
2018-06-12T02:48:39.469Z,17.70
2018-06-12T02:51:09.949Z,17.81
2018-06-12T02:53:41.021Z,17.73
2018-06-12T02:56:12.349Z,17.71
2018-06-12T02:58:43.215Z,17.61
2018-06-12T03:01:14.294Z,17.54
2018-06-12T03:03:44.856Z,17.45
2018-06-12T03:06:15.703Z,17.33
2018-06-12T03:08:46.863Z,17.07
2018-06-12T03:11:17.826Z,17.15
2018-06-12T03:13:48.604Z,17.38
2018-06-12T03:16:19.537Z,17.54
2018-06-12T03:18:49.929Z,17.65
2018-06-12T03:21:20.457Z,17.70
2018-06-12T03:23:52.032Z,17.94
2018-06-12T03:26:23.114Z,18.06
2018-06-12T03:28:53.921Z,18.21
2018-06-12T03:31:24.749Z,18.32
2018-06-12T03:33:55.481Z,18.48
2018-06-12T03:36:26.003Z,18.48
2018-06-12T03:38:56.809Z,18.54
2018-06-12T03:41:27.468Z,18.59
2018-06-12T03:43:57.665Z,18.62
2018-06-12T03:46:28.434Z,18.66
2018-06-12T03:48:59.385Z,18.76
2018-06-12T03:51:30.090Z,18.87
2018-06-12T03:54:00.825Z,19.09
2018-06-12T03:56:30.846Z,19.31
2018-06-12T03:59:02.588Z,19.37
2018-06-12T04:01:34.540Z,19.48
2018-06-12T04:04:04.558Z,19.58
2018-06-12T04:06:38.235Z,19.72
2018-06-12T04:09:10.448Z,19.81
2018-06-12T04:11:41.325Z,19.80
2018-06-12T04:14:12.260Z,19.79
2018-06-12T04:16:43.363Z,19.81
2018-06-12T04:19:14.167Z,19.59
2018-06-12T04:21:44.706Z,19.80
2018-06-12T04:24:15.388Z,19.94
2018-06-12T04:26:46.248Z,20.03
2018-06-12T04:29:16.822Z,20.16
2018-06-12T04:31:47.494Z,20.30
2018-06-12T04:34:18.131Z,20.35
2018-06-12T04:36:49.117Z,20.44
2018-06-12T04:39:19.705Z,20.58
2018-06-12T04:41:50.371Z,20.79
2018-06-12T04:44:20.885Z,20.75
2018-06-12T04:46:52.106Z,20.79
2018-06-12T04:49:22.706Z,20.72
2018-06-12T04:51:52.968Z,20.73
2018-06-12T04:54:23.790Z,20.64
2018-06-12T04:56:54.353Z,20.69
2018-06-12T04:59:25.181Z,20.70
2018-06-12T05:01:59.620Z,20.64
2018-06-12T05:04:30.140Z,20.66
2018-06-12T05:07:00.792Z,20.66
2018-06-12T05:09:31.557Z,20.86
2018-06-12T05:12:02.371Z,20.88
2018-06-12T05:14:33.427Z,20.92
2018-06-12T05:17:04.664Z,20.93
2018-06-12T05:19:35.840Z,21.22
2018-06-12T05:22:06.880Z,21.38
2018-06-12T05:24:37.629Z,21.48
2018-06-12T05:27:08.330Z,21.66
2018-06-12T05:29:39.166Z,21.87
2018-06-12T05:32:10.056Z,21.81
2018-06-12T05:34:41.033Z,21.87
2018-06-12T05:37:12.210Z,21.87
2018-06-12T05:39:43.207Z,21.86
2018-06-12T05:42:14.008Z,21.92
2018-06-12T05:44:45.067Z,21.90
2018-06-12T05:47:15.852Z,22.02
2018-06-12T05:49:46.876Z,22.19
2018-06-12T05:52:18.594Z,22.34
2018-06-12T05:54:49.180Z,22.42
2018-06-12T05:57:20.496Z,22.48
2018-06-12T05:59:51.409Z,22.65
2018-06-12T06:02:22.546Z,22.98
2018-06-12T06:04:54.231Z,23.01
2018-06-12T06:07:25.355Z,23.17
2018-06-12T06:09:56.645Z,23.28
2018-06-12T06:12:27.034Z,23.62
2018-06-12T06:14:57.480Z,23.84
2018-06-12T06:17:28.755Z,24.01
2018-06-12T06:19:59.832Z,24.08
2018-06-12T06:22:30.876Z,24.19
2018-06-12T06:25:02.108Z,24.43
2018-06-12T06:27:32.944Z,24.81
2018-06-12T06:30:03.771Z,25.09
2018-06-12T06:32:34.661Z,25.19
2018-06-12T06:35:05.710Z,25.23
2018-06-12T06:37:37.096Z,25.32
2018-06-12T06:40:07.827Z,25.69
2018-06-12T06:42:38.306Z,26.04
2018-06-12T06:45:09.176Z,26.27
2018-06-12T06:47:40.104Z,26.27
2018-06-12T06:50:11.014Z,26.41
2018-06-12T06:52:44.923Z,26.52
2018-06-12T06:55:15.185Z,26.56
2018-06-12T06:57:47.288Z,26.49
2018-06-12T07:00:18.515Z,26.34
2018-06-12T07:02:49.902Z,26.45
2018-06-12T07:05:20.919Z,26.64
2018-06-12T07:07:55.875Z,26.71
2018-06-12T07:10:27.122Z,27.24
2018-06-12T07:12:57.673Z,27.60
2018-06-12T07:15:28.345Z,27.93
2018-06-12T07:17:59.369Z,27.62
2018-06-12T07:21:34.102Z,27.89
2018-06-12T07:24:05.060Z,28.40
2018-06-12T07:26:35.911Z,28.96
2018-06-12T07:29:06.652Z,29.22
2018-06-12T07:31:37.548Z,29.49
2018-06-12T07:34:08.667Z,29.46
2018-06-12T07:36:39.742Z,29.47
2018-06-12T07:39:10.135Z,29.74
2018-06-12T07:41:40.762Z,30.17
2018-06-12T07:44:11.456Z,30.48
2018-06-12T07:46:41.907Z,30.46
2018-06-12T07:49:13.332Z,30.33
2018-06-12T07:51:43.820Z,30.44
2018-06-12T07:54:14.378Z,30.84
2018-06-12T07:56:45.468Z,30.96
2018-06-12T07:59:16.337Z,31.23
2018-06-12T08:01:47.357Z,31.34
2018-06-12T08:04:18.894Z,31.17
2018-06-12T08:06:50.037Z,31.54
2018-06-12T08:09:20.576Z,31.57
2018-06-12T08:11:51.952Z,31.34
2018-06-12T08:14:22.522Z,31.34
2018-06-12T08:16:53.420Z,31.99
2018-06-12T08:19:24.120Z,32.15
2018-06-12T08:21:54.323Z,32.31
2018-06-12T08:24:24.865Z,32.24
2018-06-12T08:26:55.727Z,32.52
2018-06-12T08:29:26.639Z,32.75
2018-06-12T08:31:57.192Z,32.52
2018-06-12T08:34:27.349Z,32.84
2018-06-12T08:36:57.814Z,32.45
2018-06-12T08:39:28.763Z,32.78
2018-06-12T08:41:59.831Z,32.68
2018-06-12T08:44:30.936Z,32.64
2018-06-12T08:47:03.058Z,32.62
2018-06-12T08:49:33.865Z,32.95
2018-06-12T08:52:04.799Z,33.05
2018-06-12T08:54:35.519Z,33.27
2018-06-12T08:57:06.593Z,33.56
2018-06-12T08:59:37.788Z,33.74
2018-06-12T09:02:08.398Z,34.34
2018-06-12T09:04:39.178Z,33.63
2018-06-12T09:07:10.311Z,33.81
2018-06-12T09:09:41.618Z,34.22
2018-06-12T09:12:12.581Z,34.39
2018-06-12T09:14:43.306Z,34.36
2018-06-12T09:17:14.096Z,33.57
2018-06-12T09:19:45.284Z,33.79
2018-06-12T09:22:16.181Z,34.06
2018-06-12T09:24:47.364Z,33.82
2018-06-12T09:27:18.168Z,33.90
2018-06-12T09:29:49.895Z,34.06
2018-06-12T09:32:21.634Z,34.52
2018-06-12T09:34:52.341Z,34.75
2018-06-12T09:37:23.226Z,35.18
2018-06-12T09:39:53.775Z,35.42
2018-06-12T09:42:25.054Z,35.36
2018-06-12T09:44:56.208Z,35.28
2018-06-12T09:47:26.821Z,34.97
2018-06-12T09:49:58.348Z,35.17
2018-06-12T09:52:29.099Z,35.28
2018-06-12T09:54:59.876Z,35.45
2018-06-12T09:57:30.468Z,35.69
2018-06-12T10:00:01.481Z,36.06
2018-06-12T10:02:32.343Z,36.31
2018-06-12T10:05:03.003Z,36.16
2018-06-12T10:07:33.774Z,35.94
2018-06-12T10:10:04.738Z,36.28
2018-06-12T10:12:34.801Z,36.34
2018-06-12T10:15:06.033Z,36.30
2018-06-12T10:17:36.996Z,36.42
2018-06-12T10:20:07.540Z,36.33
2018-06-12T10:22:38.666Z,35.94
2018-06-12T10:25:09.499Z,36.22
2018-06-12T10:27:40.427Z,36.43
2018-06-12T10:30:11.382Z,35.88
2018-06-12T10:32:42.563Z,35.86
2018-06-12T10:35:14.008Z,35.69
2018-06-12T10:37:45.098Z,35.72
2018-06-12T10:40:16.115Z,36.20
2018-06-12T10:42:46.824Z,35.81
2018-06-12T10:45:17.547Z,35.78
2018-06-12T10:47:49.043Z,36.09
2018-06-12T10:50:20.600Z,36.28
2018-06-12T10:52:51.236Z,36.19
2018-06-12T10:55:22.133Z,36.75
2018-06-12T10:57:52.913Z,37.06
2018-06-12T11:00:23.811Z,36.82
2018-06-12T11:02:54.676Z,36.85
2018-06-12T11:05:25.362Z,36.87
2018-06-12T11:07:56.161Z,36.69
2018-06-12T11:10:27.134Z,36.43
2018-06-12T11:12:57.941Z,36.32
2018-06-12T11:15:29.415Z,36.45
2018-06-12T11:18:01.163Z,36.82
2018-06-12T11:20:32.081Z,37.03
2018-06-12T11:23:03.226Z,37.27
2018-06-12T11:25:33.735Z,37.37
2018-06-12T11:28:03.931Z,37.38
2018-06-12T11:30:35.050Z,37.60
2018-06-12T11:33:06.453Z,37.63
2018-06-12T11:35:37.457Z,37.81
2018-06-12T11:38:07.920Z,37.89
2018-06-12T11:40:38.671Z,38.70
2018-06-12T11:43:09.191Z,38.95
2018-06-12T11:45:39.853Z,38.81
2018-06-12T11:48:10.919Z,39.05
2018-06-12T11:50:41.951Z,39.14
2018-06-12T11:53:12.697Z,39.00
2018-06-12T11:55:43.891Z,39.23
2018-06-12T11:58:14.739Z,39.21
2018-06-12T12:00:45.612Z,39.14
2018-06-12T12:03:17.284Z,39.02
2018-06-12T12:05:48.361Z,38.70
2018-06-12T12:08:19.455Z,39.38
2018-06-12T12:10:50.815Z,39.52
2018-06-12T12:13:21.062Z,39.41
2018-06-12T12:15:51.079Z,39.10
2018-06-12T12:18:22.666Z,38.98
2018-06-12T12:20:54.615Z,39.27
2018-06-12T12:23:26.734Z,39.04
2018-06-12T12:25:57.903Z,39.25
2018-06-12T12:28:29.499Z,39.50
2018-06-12T12:31:01.019Z,39.71
2018-06-12T12:33:32.133Z,39.50
2018-06-12T12:36:03.457Z,39.27
2018-06-12T12:38:34.274Z,39.07
2018-06-12T12:41:04.962Z,39.04
2018-06-12T12:43:36.610Z,39.36
2018-06-12T12:46:07.873Z,39.97
2018-06-12T12:48:38.669Z,39.98
2018-06-12T12:51:10.142Z,39.71
2018-06-12T12:53:41.076Z,39.60
2018-06-12T12:56:12.164Z,39.90
2018-06-12T12:58:43.092Z,40.24
2018-06-12T13:01:13.798Z,40.58
2018-06-12T13:03:44.692Z,39.96
2018-06-12T13:06:15.347Z,39.70
2018-06-12T13:08:46.068Z,39.63
2018-06-12T13:11:17.929Z,39.42
2018-06-12T13:13:48.611Z,39.67
2018-06-12T13:16:19.500Z,39.75
2018-06-12T13:18:50.178Z,39.66
2018-06-12T13:21:21.024Z,39.49
2018-06-12T13:23:51.687Z,40.07
2018-06-12T13:26:22.581Z,40.36
2018-06-12T13:28:53.894Z,40.57
2018-06-12T13:31:24.511Z,40.17
2018-06-12T13:33:55.975Z,39.85
2018-06-12T13:36:27.075Z,40.03
2018-06-12T13:38:57.831Z,40.08
2018-06-12T13:41:29.012Z,40.31
2018-06-12T13:44:00.348Z,40.37
2018-06-12T13:46:31.748Z,40.60
2018-06-12T13:49:02.455Z,40.33
2018-06-12T13:51:34.665Z,40.88
2018-06-12T13:54:05.338Z,41.24
2018-06-12T13:56:36.098Z,41.56
2018-06-12T13:59:06.872Z,41.60
2018-06-12T14:01:37.727Z,40.81
2018-06-12T14:04:08.572Z,41.08
2018-06-12T14:06:39.277Z,41.20
2018-06-12T14:09:10.019Z,40.98
2018-06-12T14:11:41.004Z,40.88
2018-06-12T14:14:11.728Z,40.87
2018-06-12T14:16:42.659Z,40.92
2018-06-12T14:19:14.215Z,41.05
2018-06-12T14:21:46.168Z,41.01
2018-06-12T14:24:16.856Z,41.13
2018-06-12T14:26:47.592Z,41.52
2018-06-12T14:29:18.273Z,40.61
2018-06-12T14:31:49.244Z,39.84
2018-06-12T14:34:20.068Z,39.49
2018-06-12T14:36:50.775Z,39.84
2018-06-12T14:39:21.683Z,39.80
2018-06-12T14:41:52.758Z,40.43
2018-06-12T14:44:23.638Z,40.53
2018-06-12T14:46:54.457Z,39.84
2018-06-12T14:49:25.609Z,39.70
2018-06-12T14:51:57.347Z,39.41
2018-06-12T14:54:27.935Z,39.43
2018-06-12T14:56:58.944Z,39.57
2018-06-12T14:59:30.770Z,40.03
2018-06-12T15:02:01.376Z,40.16
2018-06-12T15:04:32.048Z,40.34
2018-06-12T15:07:03.183Z,40.66
2018-06-12T15:09:34.026Z,40.51
2018-06-12T15:12:05.132Z,40.41
2018-06-12T15:14:36.134Z,40.48
2018-06-12T15:17:07.356Z,39.99
2018-06-12T15:19:38.415Z,39.91
2018-06-12T15:22:09.542Z,40.25
2018-06-12T15:24:40.314Z,40.29
2018-06-12T15:27:10.541Z,40.27
2018-06-12T15:29:40.645Z,40.02
2018-06-12T15:32:11.558Z,39.76
2018-06-12T15:34:42.847Z,39.21
2018-06-12T15:37:13.624Z,39.29
2018-06-12T15:39:44.211Z,39.34
2018-06-12T15:42:14.986Z,39.38
2018-06-12T15:44:45.750Z,39.67
2018-06-12T15:47:16.461Z,39.19
2018-06-12T15:49:48.020Z,39.08
2018-06-12T15:52:19.542Z,38.85
2018-06-12T15:54:50.376Z,38.57
2018-06-12T15:57:22.244Z,38.57
2018-06-12T15:59:52.920Z,38.50
2018-06-12T16:02:23.663Z,38.47
2018-06-12T16:04:54.606Z,38.54
2018-06-12T16:07:25.482Z,38.46
2018-06-12T16:09:56.381Z,38.42
2018-06-12T16:12:27.383Z,38.42
2018-06-12T16:14:58.225Z,38.25
2018-06-12T16:17:28.287Z,37.98
2018-06-12T16:19:59.226Z,37.76
2018-06-12T16:22:30.234Z,37.63
2018-06-12T16:25:00.978Z,37.53
2018-06-12T16:27:32.501Z,37.24
2018-06-12T16:30:03.227Z,37.14
2018-06-12T16:32:34.371Z,36.83
2018-06-12T16:35:05.473Z,36.61
2018-06-12T16:37:36.370Z,36.49
2018-06-12T16:40:07.958Z,36.63
2018-06-12T16:42:39.410Z,36.21
2018-06-12T16:45:10.328Z,35.81
2018-06-12T16:47:40.943Z,35.79
2018-06-12T16:50:11.915Z,35.68
2018-06-12T16:52:42.730Z,35.28
2018-06-12T16:55:13.330Z,35.04
2018-06-12T16:57:44.184Z,34.67
2018-06-12T17:00:15.362Z,34.41
2018-06-12T17:02:46.539Z,34.32
2018-06-12T17:05:17.063Z,33.98
2018-06-12T17:07:48.072Z,33.42
2018-06-12T17:10:18.940Z,33.08
2018-06-12T17:12:49.854Z,32.79
2018-06-12T17:15:20.831Z,32.33
2018-06-12T17:17:51.757Z,32.01
2018-06-12T17:20:22.517Z,31.82
2018-06-12T17:22:53.403Z,31.39
2018-06-12T17:25:24.135Z,31.14
2018-06-12T17:27:55.412Z,30.97
2018-06-12T17:30:27.284Z,30.87
2018-06-12T17:32:57.918Z,30.71
2018-06-12T17:35:29.284Z,30.43
2018-06-12T17:38:00.658Z,30.27
2018-06-12T17:40:32.509Z,30.01
2018-06-12T17:43:03.894Z,29.88
2018-06-12T17:45:34.851Z,29.75
2018-06-12T17:48:07.331Z,29.66
2018-06-12T17:50:38.665Z,29.39
2018-06-12T17:53:09.767Z,29.20
2018-06-12T17:55:40.801Z,29.10
2018-06-12T17:58:11.395Z,29.05
2018-06-12T18:00:42.153Z,28.96
2018-06-12T18:03:12.800Z,29.02
2018-06-12T18:05:43.703Z,28.96
2018-06-12T18:08:14.717Z,28.74
2018-06-12T18:10:45.621Z,28.66
2018-06-12T18:13:16.627Z,28.62
2018-06-12T18:15:46.913Z,28.64
2018-06-12T18:18:17.449Z,28.49
2018-06-12T18:20:48.720Z,28.43
2018-06-12T18:23:19.644Z,28.39
2018-06-12T18:25:50.712Z,28.25
2018-06-12T18:28:22.195Z,28.16
2018-06-12T18:30:53.347Z,28.01
2018-06-12T18:33:24.076Z,28.07
2018-06-12T18:35:54.936Z,27.89
2018-06-12T18:38:25.993Z,27.80
2018-06-12T18:40:56.729Z,27.73
2018-06-12T18:43:27.880Z,27.59
2018-06-12T18:45:58.862Z,27.44
2018-06-12T18:48:30.084Z,27.33
2018-06-12T18:51:00.923Z,27.31
2018-06-12T18:53:32.948Z,27.28
2018-06-12T18:56:03.954Z,27.21
2018-06-12T18:58:34.570Z,27.18
2018-06-12T19:01:06.377Z,27.12
2018-06-12T19:03:37.193Z,27.03
2018-06-12T19:06:08.385Z,26.90
2018-06-12T19:08:39.897Z,26.71
2018-06-12T19:11:11.055Z,26.63
2018-06-12T19:13:42.056Z,26.65
2018-06-12T19:16:12.978Z,26.60
2018-06-12T19:18:42.982Z,26.52
2018-06-12T19:21:13.066Z,26.52
2018-06-12T19:23:44.039Z,26.48
2018-06-12T19:26:14.287Z,26.42
2018-06-12T19:28:45.147Z,26.27
2018-06-12T19:31:15.977Z,26.22
2018-06-12T19:33:47.214Z,26.17
2018-06-12T19:36:18.114Z,26.19
2018-06-12T19:38:49.002Z,26.18
2018-06-12T19:41:19.504Z,26.15
2018-06-12T19:43:49.381Z,26.12
2018-06-12T19:46:20.463Z,26.34
2018-06-12T19:48:50.821Z,26.29
2018-06-12T19:51:21.130Z,26.04
2018-06-12T19:53:52.117Z,25.92
2018-06-12T19:56:23.098Z,25.86
2018-06-12T19:58:54.480Z,25.70
2018-06-12T20:01:25.373Z,25.74
2018-06-12T20:03:56.456Z,25.60
2018-06-12T20:06:27.460Z,25.52
2018-06-12T20:08:59.590Z,25.56
2018-06-12T20:11:30.345Z,25.29
2018-06-12T20:14:01.612Z,25.18
2018-06-12T20:16:31.612Z,25.20
2018-06-12T20:19:02.649Z,25.14
2018-06-12T20:21:33.430Z,25.04
2018-06-12T20:24:04.137Z,25.19
2018-06-12T20:26:35.088Z,25.18
2018-06-12T20:29:06.442Z,25.08
2018-06-12T20:31:37.273Z,24.90
2018-06-12T20:34:08.690Z,24.80
2018-06-12T20:36:40.430Z,24.60
2018-06-12T20:39:12.135Z,24.60
2018-06-12T20:41:42.780Z,24.40
2018-06-12T20:44:14.415Z,24.50
2018-06-12T20:46:45.785Z,24.50
2018-06-12T20:49:17.506Z,24.44
2018-06-12T20:51:48.030Z,24.40
2018-06-12T20:54:20.178Z,24.33
2018-06-12T20:56:52.048Z,24.19
2018-06-12T20:59:24.220Z,24.19
2018-06-12T21:01:55.568Z,24.30
2018-06-12T21:04:26.300Z,24.38
2018-06-12T21:06:56.824Z,24.30
2018-06-12T21:09:28.459Z,24.40
2018-06-12T21:11:59.609Z,24.39
2018-06-12T21:14:30.315Z,24.34
2018-06-12T21:17:01.260Z,24.34
2018-06-12T21:19:32.070Z,24.30
2018-06-12T21:22:03.160Z,24.29
2018-06-12T21:24:34.383Z,24.30
2018-06-12T21:27:05.966Z,24.30
2018-06-12T21:29:36.301Z,24.34
2018-06-12T21:32:06.996Z,24.36
2018-06-12T21:34:37.779Z,24.30
2018-06-12T21:37:08.732Z,24.22
2018-06-12T21:39:40.131Z,24.11
2018-06-12T21:42:11.107Z,24.08
2018-06-12T21:44:41.959Z,24.01
2018-06-12T21:47:12.944Z,23.87
2018-06-12T21:49:43.334Z,23.88
2018-06-12T21:52:14.345Z,23.74
2018-06-12T21:54:45.411Z,23.56
2018-06-12T21:57:16.059Z,23.20
2018-06-12T21:59:47.045Z,23.04
2018-06-12T22:02:17.781Z,22.67
2018-06-12T22:04:48.907Z,22.72
2018-06-12T22:07:19.501Z,22.77
2018-06-12T22:09:49.861Z,22.84
2018-06-12T22:12:20.977Z,23.03
2018-06-12T22:14:51.961Z,23.11
2018-06-12T22:17:22.723Z,23.11
2018-06-12T22:19:53.531Z,23.02
2018-06-12T22:22:24.316Z,22.83
2018-06-12T22:24:55.099Z,22.82
2018-06-12T22:27:26.121Z,22.82
2018-06-12T22:29:56.832Z,22.82
2018-06-12T22:32:28.008Z,22.77
2018-06-12T22:34:59.036Z,22.62
2018-06-12T22:37:29.778Z,22.64
2018-06-12T22:40:00.461Z,22.55
2018-06-12T22:42:31.006Z,22.46
2018-06-12T22:45:01.803Z,22.37
2018-06-12T22:47:32.743Z,22.33
2018-06-12T22:50:03.243Z,21.90
2018-06-12T22:52:33.985Z,21.76
2018-06-12T22:55:04.816Z,21.86
2018-06-12T22:57:35.516Z,21.96
2018-06-12T23:00:06.167Z,21.90
2018-06-12T23:02:36.889Z,21.89
2018-06-12T23:05:07.869Z,21.80
2018-06-12T23:07:38.817Z,21.76
2018-06-12T23:10:10.547Z,21.60
2018-06-12T23:12:40.618Z,21.28
2018-06-12T23:15:11.446Z,21.37
2018-06-12T23:17:42.553Z,21.37
2018-06-12T23:20:23.979Z,21.29
2018-06-12T23:22:54.963Z,21.25
2018-06-12T23:25:25.691Z,21.36
2018-06-12T23:27:56.597Z,21.46
2018-06-12T23:30:27.426Z,21.48
2018-06-12T23:32:58.123Z,21.28
2018-06-12T23:35:28.652Z,21.19
2018-06-12T23:37:59.269Z,21.15
2018-06-12T23:40:30.072Z,21.15
2018-06-12T23:43:01.104Z,21.21
2018-06-12T23:45:32.155Z,21.37
2018-06-12T23:48:03.281Z,21.42
2018-06-12T23:50:34.574Z,21.38
2018-06-12T23:53:05.380Z,21.05
2018-06-12T23:55:36.174Z,20.95
2018-06-12T23:58:07.353Z,20.86
